Bonesteel, South Dakota
Current Conditions -  °F | °C
As of 2:15 AM on Monday 22 Dec 2014 (Local Time) from KONL Reporting Station
Haze Haze  
Wind Chill: 31°   Ceiling: 500
Heat Index: 38°   Visibility: 4mi
Dew Point: 38°   Wind: 9mph
Humidity: 99%   Direction: 200°SSW
Pressure: 29.47"   Gusts: NA
Location:  43.08°N, 98.94°W
Report Text: KONL 220815Z AUTO 20008KT 4SM BR OVC005 03/03 A2947 RMK AO2 T00330032
Loading
Personal Weather Stations






























Interactive Weather Map New forecast layout! Learn more

10-Day Weather Forecast

Advertisements
Track Severe Weather on mobile